Terminal Aerodrome Forecast
Issued by NWS Nashville, TN

Home | Current Version | Previous Version | Text Only | Print | Product List | Glossary On
Versions: 1 2 3 4 5 6 7 8 9 10 11 12 13 14 15 16 17
000
FTUS44 KOHX 281728
TAFCSV
TAF
KCSV 281728Z 2818/2918 17010G20KT P6SM BKN025
     FM290000 17008KT P6SM BKN030
      TEMPO 2908/2912 4SM BR OVC015
     FM291400 18012KT P6SM SCT025=

USA.gov is the U.S. government's official web portal to all federal, state and local government web resources and services.